sensor_id;sensor_type;location;lat;lon;timestamp;P1;durP1;ratioP1;P2;durP2;ratioP2
23121;SDS011;11730;51.248;22.534;2023-03-12T00:02:01;9.57;;;5.78;;
23121;SDS011;11730;51.248;22.534;2023-03-12T00:04:28;13.50;;;6.50;;
23121;SDS011;11730;51.248;22.534;2023-03-12T00:06:57;13.10;;;6.30;;
23121;SDS011;11730;51.248;22.534;2023-03-12T00:09:24;9.73;;;7.45;;
23121;SDS011;11730;51.248;22.534;2023-03-12T00:11:51;10.55;;;6.25;;
23121;SDS011;11730;51.248;22.534;2023-03-12T00:14:19;12.35;;;7.05;;
23121;SDS011;11730;51.248;22.534;2023-03-12T00:16:46;15.70;;;7.25;;
23121;SDS011;11730;51.248;22.534;2023-03-12T00:19:13;12.57;;;6.50;;
23121;SDS011;11730;51.248;22.534;2023-03-12T00:21:41;11.52;;;6.72;;
23121;SDS011;11730;51.248;22.534;2023-03-12T00:24:08;11.30;;;6.57;;
23121;SDS011;11730;51.248;22.534;2023-03-12T00:26:35;13.38;;;7.45;;
23121;SDS011;11730;51.248;22.534;2023-03-12T00:29:03;11.52;;;6.78;;
23121;SDS011;11730;51.248;22.534;2023-03-12T00:31:31;9.55;;;6.75;;
23121;SDS011;11730;51.248;22.534;2023-03-12T00:33:59;12.35;;;6.90;;
23121;SDS011;11730;51.248;22.534;2023-03-12T00:36:27;10.75;;;6.85;;
23121;SDS011;11730;51.248;22.534;2023-03-12T00:38:56;13.05;;;7.32;;
23121;SDS011;11730;51.248;22.534;2023-03-12T00:41:24;15.43;;;7.05;;
23121;SDS011;11730;51.248;22.534;2023-03-12T00:43:52;16.95;;;7.60;;
23121;SDS011;11730;51.248;22.534;2023-03-12T00:46:19;12.73;;;7.10;;
23121;SDS011;11730;51.248;22.534;2023-03-12T00:48:46;12.65;;;6.47;;
23121;SDS011;11730;51.248;22.534;2023-03-12T00:51:14;13.88;;;6.88;;
23121;SDS011;11730;51.248;22.534;2023-03-12T00:53:41;9.77;;;6.40;;
23121;SDS011;11730;51.248;22.534;2023-03-12T00:56:08;13.00;;;7.15;;
23121;SDS011;11730;51.248;22.534;2023-03-12T00:58:36;10.30;;;6.25;;
23121;SDS011;11730;51.248;22.534;2023-03-12T01:01:03;13.40;;;7.07;;
23121;SDS011;11730;51.248;22.534;2023-03-12T01:03:31;9.77;;;6.05;;
23121;SDS011;11730;51.248;22.534;2023-03-12T01:05:58;9.02;;;6.57;;
23121;SDS011;11730;51.248;22.534;2023-03-12T01:08:26;13.10;;;7.03;;
23121;SDS011;11730;51.248;22.534;2023-03-12T01:10:53;14.73;;;6.80;;
23121;SDS011;11730;51.248;22.534;2023-03-12T01:13:20;9.25;;;6.13;;
23121;SDS011;11730;51.248;22.534;2023-03-12T01:15:48;10.50;;;6.60;;
23121;SDS011;11730;51.248;22.534;2023-03-12T01:18:15;12.75;;;7.00;;
23121;SDS011;11730;51.248;22.534;2023-03-12T01:20:42;6.88;;;5.45;;
23121;SDS011;11730;51.248;22.534;2023-03-12T01:23:09;14.65;;;7.20;;
23121;SDS011;11730;51.248;22.534;2023-03-12T01:25:36;10.43;;;6.03;;
23121;SDS011;11730;51.248;22.534;2023-03-12T01:28:03;11.93;;;7.22;;
23121;SDS011;11730;51.248;22.534;2023-03-12T01:30:31;9.52;;;6.10;;
23121;SDS011;11730;51.248;22.534;2023-03-12T01:32:58;9.95;;;6.97;;
23121;SDS011;11730;51.248;22.534;2023-03-12T01:35:25;8.50;;;5.95;;
23121;SDS011;11730;51.248;22.534;2023-03-12T01:37:53;14.93;;;6.10;;
23121;SDS011;11730;51.248;22.534;2023-03-12T01:40:21;10.90;;;5.50;;
23121;SDS011;11730;51.248;22.534;2023-03-12T01:48:07;10.60;;;6.68;;
23121;SDS011;11730;51.248;22.534;2023-03-12T01:50:35;9.30;;;6.55;;
23121;SDS011;11730;51.248;22.534;2023-03-12T01:53:02;10.45;;;7.07;;
23121;SDS011;11730;51.248;22.534;2023-03-12T01:55:29;9.82;;;6.60;;
23121;SDS011;11730;51.248;22.534;2023-03-12T01:57:56;12.00;;;6.90;;
23121;SDS011;11730;51.248;22.534;2023-03-12T02:00:25;8.77;;;6.05;;
23121;SDS011;11730;51.248;22.534;2023-03-12T02:02:53;11.93;;;7.55;;
23121;SDS011;11730;51.248;22.534;2023-03-12T02:05:24;8.05;;;5.50;;
23121;SDS011;11730;51.248;22.534;2023-03-12T02:07:52;12.18;;;6.95;;
23121;SDS011;11730;51.248;22.534;2023-03-12T02:10:20;7.15;;;5.63;;
23121;SDS011;11730;51.248;22.534;2023-03-12T02:12:47;15.18;;;6.93;;
23121;SDS011;11730;51.248;22.534;2023-03-12T02:15:15;10.30;;;7.70;;
23121;SDS011;11730;51.248;22.534;2023-03-12T02:17:42;9.25;;;6.65;;
23121;SDS011;11730;51.248;22.534;2023-03-12T02:22:45;10.15;;;6.28;;
23121;SDS011;11730;51.248;22.534;2023-03-12T02:25:36;14.73;;;7.95;;
23121;SDS011;11730;51.248;22.534;2023-03-12T02:28:07;11.48;;;7.47;;
23121;SDS011;11730;51.248;22.534;2023-03-12T02:30:35;12.45;;;7.55;;
23121;SDS011;11730;51.248;22.534;2023-03-12T02:33:04;14.18;;;7.22;;
23121;SDS011;11730;51.248;22.534;2023-03-12T02:35:33;11.50;;;7.55;;
23121;SDS011;11730;51.248;22.534;2023-03-12T02:38:01;9.82;;;7.05;;
23121;SDS011;11730;51.248;22.534;2023-03-12T02:40:41;11.77;;;7.30;;
23121;SDS011;11730;51.248;22.534;2023-03-12T02:43:09;15.90;;;7.60;;
23121;SDS011;11730;51.248;22.534;2023-03-12T02:45:37;11.73;;;6.93;;
23121;SDS011;11730;51.248;22.534;2023-03-12T02:48:05;12.20;;;8.40;;
23121;SDS011;11730;51.248;22.534;2023-03-12T02:50:34;11.07;;;7.60;;
23121;SDS011;11730;51.248;22.534;2023-03-12T02:53:01;11.15;;;7.75;;
23121;SDS011;11730;51.248;22.534;2023-03-12T02:55:28;11.75;;;8.55;;
23121;SDS011;11730;51.248;22.534;2023-03-12T02:57:55;10.23;;;7.25;;
23121;SDS011;11730;51.248;22.534;2023-03-12T03:00:23;12.07;;;7.82;;
23121;SDS011;11730;51.248;22.534;2023-03-12T03:02:50;15.27;;;8.75;;
23121;SDS011;11730;51.248;22.534;2023-03-12T03:05:17;12.70;;;8.32;;
23121;SDS011;11730;51.248;22.534;2023-03-12T03:07:45;12.82;;;7.57;;
23121;SDS011;11730;51.248;22.534;2023-03-12T03:10:12;11.25;;;8.02;;
23121;SDS011;11730;51.248;22.534;2023-03-12T03:12:42;10.38;;;8.23;;
23121;SDS011;11730;51.248;22.534;2023-03-12T03:15:10;12.55;;;7.88;;
23121;SDS011;11730;51.248;22.534;2023-03-12T03:17:37;13.68;;;8.75;;
23121;SDS011;11730;51.248;22.534;2023-03-12T03:20:05;14.27;;;9.20;;
23121;SDS011;11730;51.248;22.534;2023-03-12T03:22:36;10.68;;;6.50;;
23121;SDS011;11730;51.248;22.534;2023-03-12T03:25:04;12.38;;;7.80;;
23121;SDS011;11730;51.248;22.534;2023-03-12T03:27:32;13.55;;;6.68;;
23121;SDS011;11730;51.248;22.534;2023-03-12T03:29:59;11.18;;;7.38;;
23121;SDS011;11730;51.248;22.534;2023-03-12T03:32:26;12.13;;;8.07;;
23121;SDS011;11730;51.248;22.534;2023-03-12T03:34:54;12.57;;;9.45;;
23121;SDS011;11730;51.248;22.534;2023-03-12T03:37:21;13.18;;;8.65;;
23121;SDS011;11730;51.248;22.534;2023-03-12T03:39:48;14.40;;;8.07;;
23121;SDS011;11730;51.248;22.534;2023-03-12T03:42:15;12.88;;;8.50;;
23121;SDS011;11730;51.248;22.534;2023-03-12T03:44:42;11.52;;;9.05;;
23121;SDS011;11730;51.248;22.534;2023-03-12T03:47:09;21.42;;;10.45;;
23121;SDS011;11730;51.248;22.534;2023-03-12T03:49:37;14.95;;;9.50;;
23121;SDS011;11730;51.248;22.534;2023-03-12T03:52:04;17.17;;;9.70;;
23121;SDS011;11730;51.248;22.534;2023-03-12T03:54:32;10.95;;;7.38;;
23121;SDS011;11730;51.248;22.534;2023-03-12T03:56:59;19.73;;;11.27;;
23121;SDS011;11730;51.248;22.534;2023-03-12T03:59:27;17.83;;;10.25;;
23121;SDS011;11730;51.248;22.534;2023-03-12T04:01:54;18.23;;;11.20;;
23121;SDS011;11730;51.248;22.534;2023-03-12T04:04:21;18.48;;;10.27;;
23121;SDS011;11730;51.248;22.534;2023-03-12T04:06:49;18.83;;;10.55;;
23121;SDS011;11730;51.248;22.534;2023-03-12T04:09:16;18.10;;;10.10;;
23121;SDS011;11730;51.248;22.534;2023-03-12T04:11:43;19.05;;;11.48;;
23121;SDS011;11730;51.248;22.534;2023-03-12T04:14:10;16.25;;;10.40;;
23121;SDS011;11730;51.248;22.534;2023-03-12T04:16:37;20.20;;;11.02;;
23121;SDS011;11730;51.248;22.534;2023-03-12T04:19:05;14.95;;;8.30;;
23121;SDS011;11730;51.248;22.534;2023-03-12T04:21:32;19.15;;;11.00;;
23121;SDS011;11730;51.248;22.534;2023-03-12T04:23:59;12.98;;;8.57;;
23121;SDS011;11730;51.248;22.534;2023-03-12T04:26:27;16.25;;;8.73;;
23121;SDS011;11730;51.248;22.534;2023-03-12T04:28:54;18.83;;;10.43;;
23121;SDS011;11730;51.248;22.534;2023-03-12T04:31:21;15.13;;;10.50;;
23121;SDS011;11730;51.248;22.534;2023-03-12T04:33:49;17.60;;;10.77;;
23121;SDS011;11730;51.248;22.534;2023-03-12T04:36:16;13.35;;;8.85;;
23121;SDS011;11730;51.248;22.534;2023-03-12T04:38:43;18.27;;;9.45;;
23121;SDS011;11730;51.248;22.534;2023-03-12T04:41:11;13.82;;;9.15;;
23121;SDS011;11730;51.248;22.534;2023-03-12T04:43:39;14.15;;;9.57;;
23121;SDS011;11730;51.248;22.534;2023-03-12T04:46:06;16.70;;;10.35;;
23121;SDS011;11730;51.248;22.534;2023-03-12T04:48:35;16.10;;;11.32;;
23121;SDS011;11730;51.248;22.534;2023-03-12T04:51:03;14.60;;;8.95;;
23121;SDS011;11730;51.248;22.534;2023-03-12T04:53:30;15.38;;;10.07;;
23121;SDS011;11730;51.248;22.534;2023-03-12T04:55:58;14.82;;;9.93;;
23121;SDS011;11730;51.248;22.534;2023-03-12T04:58:25;17.70;;;10.10;;
23121;SDS011;11730;51.248;22.534;2023-03-12T05:00:53;16.67;;;10.02;;
23121;SDS011;11730;51.248;22.534;2023-03-12T05:03:20;13.02;;;7.60;;
23121;SDS011;11730;51.248;22.534;2023-03-12T05:05:47;20.42;;;10.88;;
23121;SDS011;11730;51.248;22.534;2023-03-12T05:08:14;15.73;;;10.00;;
23121;SDS011;11730;51.248;22.534;2023-03-12T05:10:41;13.98;;;9.35;;
23121;SDS011;11730;51.248;22.534;2023-03-12T05:13:13;14.00;;;9.45;;
23121;SDS011;11730;51.248;22.534;2023-03-12T05:18:12;19.63;;;10.07;;
23121;SDS011;11730;51.248;22.534;2023-03-12T05:20:40;13.68;;;8.73;;
23121;SDS011;11730;51.248;22.534;2023-03-12T05:23:07;13.48;;;7.90;;
23121;SDS011;11730;51.248;22.534;2023-03-12T05:25:37;19.40;;;10.23;;
23121;SDS011;11730;51.248;22.534;2023-03-12T05:28:05;12.13;;;7.78;;
23121;SDS011;11730;51.248;22.534;2023-03-12T05:30:33;19.15;;;11.13;;
23121;SDS011;11730;51.248;22.534;2023-03-12T05:33:00;24.77;;;10.43;;
23121;SDS011;11730;51.248;22.534;2023-03-12T05:35:27;19.38;;;10.35;;
23121;SDS011;11730;51.248;22.534;2023-03-12T05:37:55;15.10;;;9.90;;
23121;SDS011;11730;51.248;22.534;2023-03-12T05:40:22;15.15;;;8.55;;
23121;SDS011;11730;51.248;22.534;2023-03-12T05:42:49;20.35;;;9.25;;
23121;SDS011;11730;51.248;22.534;2023-03-12T05:45:16;17.95;;;9.10;;
23121;SDS011;11730;51.248;22.534;2023-03-12T05:47:44;13.48;;;7.53;;
23121;SDS011;11730;51.248;22.534;2023-03-12T05:50:12;11.77;;;7.75;;
23121;SDS011;11730;51.248;22.534;2023-03-12T05:52:41;11.77;;;7.45;;
23121;SDS011;11730;51.248;22.534;2023-03-12T05:55:08;10.85;;;7.10;;
23121;SDS011;11730;51.248;22.534;2023-03-12T05:57:36;14.68;;;9.07;;
23121;SDS011;11730;51.248;22.534;2023-03-12T06:00:03;12.25;;;6.30;;
23121;SDS011;11730;51.248;22.534;2023-03-12T06:02:31;12.40;;;7.60;;
23121;SDS011;11730;51.248;22.534;2023-03-12T06:04:58;9.90;;;7.00;;
23121;SDS011;11730;51.248;22.534;2023-03-12T06:07:26;13.35;;;8.48;;
23121;SDS011;11730;51.248;22.534;2023-03-12T06:09:53;10.43;;;7.13;;
23121;SDS011;11730;51.248;22.534;2023-03-12T06:12:20;10.88;;;7.13;;
23121;SDS011;11730;51.248;22.534;2023-03-12T06:14:47;17.95;;;8.90;;
23121;SDS011;11730;51.248;22.534;2023-03-12T06:17:15;9.13;;;6.70;;
23121;SDS011;11730;51.248;22.534;2023-03-12T06:19:42;13.70;;;6.93;;
23121;SDS011;11730;51.248;22.534;2023-03-12T06:22:09;16.52;;;7.93;;
23121;SDS011;11730;51.248;22.534;2023-03-12T06:24:36;12.93;;;6.47;;
23121;SDS011;11730;51.248;22.534;2023-03-12T06:27:04;13.15;;;8.23;;
23121;SDS011;11730;51.248;22.534;2023-03-12T06:29:31;11.85;;;8.65;;
23121;SDS011;11730;51.248;22.534;2023-03-12T06:32:00;13.43;;;8.75;;
23121;SDS011;11730;51.248;22.534;2023-03-12T06:34:27;11.13;;;7.18;;
23121;SDS011;11730;51.248;22.534;2023-03-12T06:36:54;13.30;;;8.38;;
23121;SDS011;11730;51.248;22.534;2023-03-12T06:39:23;15.65;;;8.90;;
23121;SDS011;11730;51.248;22.534;2023-03-12T06:41:50;14.13;;;7.80;;
23121;SDS011;11730;51.248;22.534;2023-03-12T06:44:17;7.32;;;6.15;;
23121;SDS011;11730;51.248;22.534;2023-03-12T06:46:45;15.32;;;7.68;;
23121;SDS011;11730;51.248;22.534;2023-03-12T06:49:12;9.55;;;6.28;;
23121;SDS011;11730;51.248;22.534;2023-03-12T06:51:39;10.00;;;6.95;;
23121;SDS011;11730;51.248;22.534;2023-03-12T06:54:07;13.80;;;7.78;;
23121;SDS011;11730;51.248;22.534;2023-03-12T06:56:34;15.73;;;9.38;;
23121;SDS011;11730;51.248;22.534;2023-03-12T06:59:01;13.60;;;6.13;;
23121;SDS011;11730;51.248;22.534;2023-03-12T07:01:28;8.75;;;6.07;;
23121;SDS011;11730;51.248;22.534;2023-03-12T07:03:55;10.68;;;6.15;;
23121;SDS011;11730;51.248;22.534;2023-03-12T07:06:23;13.45;;;8.30;;
23121;SDS011;11730;51.248;22.534;2023-03-12T07:08:50;14.52;;;7.70;;
23121;SDS011;11730;51.248;22.534;2023-03-12T07:11:18;14.93;;;8.15;;
23121;SDS011;11730;51.248;22.534;2023-03-12T07:13:45;13.38;;;7.82;;
23121;SDS011;11730;51.248;22.534;2023-03-12T07:16:12;14.35;;;8.10;;
23121;SDS011;11730;51.248;22.534;2023-03-12T07:18:40;15.20;;;8.05;;
23121;SDS011;11730;51.248;22.534;2023-03-12T07:21:07;11.15;;;7.05;;
23121;SDS011;11730;51.248;22.534;2023-03-12T07:23:34;14.75;;;7.55;;
23121;SDS011;11730;51.248;22.534;2023-03-12T07:26:03;14.13;;;8.18;;
23121;SDS011;11730;51.248;22.534;2023-03-12T07:28:30;16.23;;;8.48;;
23121;SDS011;11730;51.248;22.534;2023-03-12T07:31:02;11.25;;;6.20;;
23121;SDS011;11730;51.248;22.534;2023-03-12T07:33:29;12.77;;;8.18;;
23121;SDS011;11730;51.248;22.534;2023-03-12T07:35:57;11.77;;;6.20;;
23121;SDS011;11730;51.248;22.534;2023-03-12T07:38:24;14.52;;;7.88;;
23121;SDS011;11730;51.248;22.534;2023-03-12T07:40:52;9.15;;;6.10;;
23121;SDS011;11730;51.248;22.534;2023-03-12T07:43:20;15.63;;;7.63;;
23121;SDS011;11730;51.248;22.534;2023-03-12T07:45:48;11.30;;;6.35;;
23121;SDS011;11730;51.248;22.534;2023-03-12T07:48:15;13.20;;;7.57;;
23121;SDS011;11730;51.248;22.534;2023-03-12T07:50:45;11.88;;;7.75;;
23121;SDS011;11730;51.248;22.534;2023-03-12T07:53:12;6.28;;;5.15;;
23121;SDS011;11730;51.248;22.534;2023-03-12T07:55:42;10.60;;;6.32;;
23121;SDS011;11730;51.248;22.534;2023-03-12T07:58:09;10.73;;;6.82;;
23121;SDS011;11730;51.248;22.534;2023-03-12T08:00:38;12.48;;;7.25;;
23121;SDS011;11730;51.248;22.534;2023-03-12T08:03:05;13.40;;;7.45;;
23121;SDS011;11730;51.248;22.534;2023-03-12T08:05:33;12.82;;;7.78;;
23121;SDS011;11730;51.248;22.534;2023-03-12T08:08:00;10.05;;;6.18;;
23121;SDS011;11730;51.248;22.534;2023-03-12T08:10:27;8.15;;;5.32;;
23121;SDS011;11730;51.248;22.534;2023-03-12T08:12:55;11.30;;;6.45;;
23121;SDS011;11730;51.248;22.534;2023-03-12T08:15:22;12.25;;;7.53;;
23121;SDS011;11730;51.248;22.534;2023-03-12T08:17:49;7.18;;;5.63;;
23121;SDS011;11730;51.248;22.534;2023-03-12T08:20:17;7.78;;;5.72;;
23121;SDS011;11730;51.248;22.534;2023-03-12T08:22:44;7.85;;;5.88;;
23121;SDS011;11730;51.248;22.534;2023-03-12T08:25:11;10.45;;;6.15;;
23121;SDS011;11730;51.248;22.534;2023-03-12T08:27:39;12.60;;;7.13;;
23121;SDS011;11730;51.248;22.534;2023-03-12T08:30:06;10.48;;;6.03;;
23121;SDS011;11730;51.248;22.534;2023-03-12T08:32:35;13.77;;;6.45;;
23121;SDS011;11730;51.248;22.534;2023-03-12T08:35:02;9.20;;;6.32;;
23121;SDS011;11730;51.248;22.534;2023-03-12T08:37:30;12.90;;;7.10;;
23121;SDS011;11730;51.248;22.534;2023-03-12T08:39:58;10.38;;;6.75;;
23121;SDS011;11730;51.248;22.534;2023-03-12T08:42:25;7.25;;;5.28;;
23121;SDS011;11730;51.248;22.534;2023-03-12T08:44:52;11.30;;;6.05;;
23121;SDS011;11730;51.248;22.534;2023-03-12T08:47:20;9.30;;;5.78;;
23121;SDS011;11730;51.248;22.534;2023-03-12T08:49:47;11.60;;;7.25;;
23121;SDS011;11730;51.248;22.534;2023-03-12T08:52:14;5.25;;;4.75;;
23121;SDS011;11730;51.248;22.534;2023-03-12T08:54:42;10.68;;;5.90;;
23121;SDS011;11730;51.248;22.534;2023-03-12T08:57:09;8.05;;;3.78;;
23121;SDS011;11730;51.248;22.534;2023-03-12T08:59:36;9.38;;;5.93;;
23121;SDS011;11730;51.248;22.534;2023-03-12T09:02:03;8.40;;;6.00;;
23121;SDS011;11730;51.248;22.534;2023-03-12T09:04:31;8.40;;;5.68;;
23121;SDS011;11730;51.248;22.534;2023-03-12T09:06:59;9.88;;;6.55;;
23121;SDS011;11730;51.248;22.534;2023-03-12T09:09:26;13.13;;;6.05;;
23121;SDS011;11730;51.248;22.534;2023-03-12T09:11:53;6.15;;;5.32;;
23121;SDS011;11730;51.248;22.534;2023-03-12T09:14:21;9.05;;;6.30;;
23121;SDS011;11730;51.248;22.534;2023-03-12T09:17:08;7.25;;;6.10;;
23121;SDS011;11730;51.248;22.534;2023-03-12T09:19:35;8.77;;;5.43;;
23121;SDS011;11730;51.248;22.534;2023-03-12T09:22:03;14.00;;;6.25;;
23121;SDS011;11730;51.248;22.534;2023-03-12T09:24:30;10.43;;;6.55;;
23121;SDS011;11730;51.248;22.534;2023-03-12T09:26:57;11.52;;;5.85;;
23121;SDS011;11730;51.248;22.534;2023-03-12T09:29:24;7.97;;;6.00;;
23121;SDS011;11730;51.248;22.534;2023-03-12T09:31:51;10.35;;;6.88;;
23121;SDS011;11730;51.248;22.534;2023-03-12T09:34:19;13.48;;;7.03;;
23121;SDS011;11730;51.248;22.534;2023-03-12T09:36:46;10.82;;;6.78;;
23121;SDS011;11730;51.248;22.534;2023-03-12T09:39:14;9.68;;;6.53;;
23121;SDS011;11730;51.248;22.534;2023-03-12T09:41:42;10.93;;;6.40;;
23121;SDS011;11730;51.248;22.534;2023-03-12T09:47:01;7.07;;;5.00;;
23121;SDS011;11730;51.248;22.534;2023-03-12T09:52:12;13.43;;;8.65;;
23121;SDS011;11730;51.248;22.534;2023-03-12T09:54:54;12.13;;;5.88;;
23121;SDS011;11730;51.248;22.534;2023-03-12T09:57:24;7.00;;;4.78;;
23121;SDS011;11730;51.248;22.534;2023-03-12T09:59:54;11.63;;;6.03;;
23121;SDS011;11730;51.248;22.534;2023-03-12T10:10:53;11.65;;;6.22;;
23121;SDS011;11730;51.248;22.534;2023-03-12T10:22:13;7.35;;;4.72;;
23121;SDS011;11730;51.248;22.534;2023-03-12T10:27:21;7.10;;;4.88;;
23121;SDS011;11730;51.248;22.534;2023-03-12T10:29:53;7.78;;;4.57;;
23121;SDS011;11730;51.248;22.534;2023-03-12T10:32:23;9.60;;;3.65;;
23121;SDS011;11730;51.248;22.534;2023-03-12T10:34:55;5.78;;;3.95;;
23121;SDS011;11730;51.248;22.534;2023-03-12T10:37:59;11.70;;;4.55;;
23121;SDS011;11730;51.248;22.534;2023-03-12T10:40:20;8.65;;;5.07;;
23121;SDS011;11730;51.248;22.534;2023-03-12T10:42:52;11.60;;;5.53;;
23121;SDS011;11730;51.248;22.534;2023-03-12T10:51:10;8.48;;;5.55;;
23121;SDS011;11730;51.248;22.534;2023-03-12T10:53:39;5.47;;;4.53;;
23121;SDS011;11730;51.248;22.534;2023-03-12T10:58:38;9.10;;;6.00;;
23121;SDS011;11730;51.248;22.534;2023-03-12T11:01:13;10.57;;;5.80;;
23121;SDS011;11730;51.248;22.534;2023-03-12T11:03:48;6.22;;;4.70;;
23121;SDS011;11730;51.248;22.534;2023-03-12T11:06:21;8.60;;;5.28;;
23121;SDS011;11730;51.248;22.534;2023-03-12T11:11:45;15.88;;;6.13;;
23121;SDS011;11730;51.248;22.534;2023-03-12T11:16:42;8.13;;;4.50;;
23121;SDS011;11730;51.248;22.534;2023-03-12T11:19:11;27.08;;;13.18;;
23121;SDS011;11730;51.248;22.534;2023-03-12T11:21:39;7.95;;;5.32;;
23121;SDS011;11730;51.248;22.534;2023-03-12T11:24:10;6.25;;;3.63;;
23121;SDS011;11730;51.248;22.534;2023-03-12T11:34:21;6.55;;;3.67;;
23121;SDS011;11730;51.248;22.534;2023-03-12T11:36:54;11.80;;;5.95;;
23121;SDS011;11730;51.248;22.534;2023-03-12T11:44:57;6.50;;;3.72;;
23121;SDS011;11730;51.248;22.534;2023-03-12T11:47:35;4.45;;;2.80;;
23121;SDS011;11730;51.248;22.534;2023-03-12T12:03:24;4.63;;;2.58;;
23121;SDS011;11730;51.248;22.534;2023-03-12T12:25:05;3.80;;;2.35;;
23121;SDS011;11730;51.248;22.534;2023-03-12T12:33:58;4.38;;;2.30;;
23121;SDS011;11730;51.248;22.534;2023-03-12T12:36:16;5.88;;;3.15;;
23121;SDS011;11730;51.248;22.534;2023-03-12T12:38:48;3.88;;;1.75;;
23121;SDS011;11730;51.248;22.534;2023-03-12T12:41:29;3.90;;;2.22;;
23121;SDS011;11730;51.248;22.534;2023-03-12T12:43:58;4.60;;;2.03;;
23121;SDS011;11730;51.248;22.534;2023-03-12T12:46:34;5.17;;;2.40;;
23121;SDS011;11730;51.248;22.534;2023-03-12T12:49:07;5.30;;;2.20;;
23121;SDS011;11730;51.248;22.534;2023-03-12T12:51:35;2.78;;;1.77;;
23121;SDS011;11730;51.248;22.534;2023-03-12T12:59:50;3.33;;;2.30;;
23121;SDS011;11730;51.248;22.534;2023-03-12T13:01:52;11.93;;;5.18;;
23121;SDS011;11730;51.248;22.534;2023-03-12T13:04:24;7.22;;;2.90;;
23121;SDS011;11730;51.248;22.534;2023-03-12T13:06:57;7.57;;;2.97;;
23121;SDS011;11730;51.248;22.534;2023-03-12T13:09:34;5.63;;;2.05;;
23121;SDS011;11730;51.248;22.534;2023-03-12T13:14:48;4.32;;;2.65;;
23121;SDS011;11730;51.248;22.534;2023-03-12T13:22:49;4.63;;;1.80;;
23121;SDS011;11730;51.248;22.534;2023-03-12T13:25:47;3.67;;;2.08;;
23121;SDS011;11730;51.248;22.534;2023-03-12T13:33:50;4.10;;;2.25;;
23121;SDS011;11730;51.248;22.534;2023-03-12T13:36:19;5.75;;;2.45;;
23121;SDS011;11730;51.248;22.534;2023-03-12T13:38:59;4.68;;;3.00;;
23121;SDS011;11730;51.248;22.534;2023-03-12T13:41:34;6.45;;;3.05;;
23121;SDS011;11730;51.248;22.534;2023-03-12T13:54:32;5.47;;;2.72;;
23121;SDS011;11730;51.248;22.534;2023-03-12T13:57:04;4.28;;;2.95;;
23121;SDS011;11730;51.248;22.534;2023-03-12T13:59:41;7.53;;;3.50;;
23121;SDS011;11730;51.248;22.534;2023-03-12T14:02:53;5.85;;;3.20;;
23121;SDS011;11730;51.248;22.534;2023-03-12T14:05:03;4.22;;;2.97;;
23121;SDS011;11730;51.248;22.534;2023-03-12T14:07:45;15.13;;;6.25;;
23121;SDS011;11730;51.248;22.534;2023-03-12T14:13:07;6.95;;;3.63;;
23121;SDS011;11730;51.248;22.534;2023-03-12T14:18:38;8.80;;;3.40;;
23121;SDS011;11730;51.248;22.534;2023-03-12T14:21:07;5.25;;;2.45;;
23121;SDS011;11730;51.248;22.534;2023-03-12T14:23:38;10.20;;;3.30;;
23121;SDS011;11730;51.248;22.534;2023-03-12T14:26:07;6.85;;;2.63;;
23121;SDS011;11730;51.248;22.534;2023-03-12T14:28:51;4.72;;;2.10;;
23121;SDS011;11730;51.248;22.534;2023-03-12T14:31:20;6.70;;;2.80;;
23121;SDS011;11730;51.248;22.534;2023-03-12T14:33:52;5.43;;;2.38;;
23121;SDS011;11730;51.248;22.534;2023-03-12T14:36:21;3.97;;;2.45;;
23121;SDS011;11730;51.248;22.534;2023-03-12T14:38:57;6.20;;;3.20;;
23121;SDS011;11730;51.248;22.534;2023-03-12T14:41:29;5.07;;;2.90;;
23121;SDS011;11730;51.248;22.534;2023-03-12T14:44:11;7.25;;;2.60;;
23121;SDS011;11730;51.248;22.534;2023-03-12T14:46:45;6.03;;;3.45;;
23121;SDS011;11730;51.248;22.534;2023-03-12T14:49:18;6.32;;;3.17;;
23121;SDS011;11730;51.248;22.534;2023-03-12T14:51:46;5.05;;;3.22;;
23121;SDS011;11730;51.248;22.534;2023-03-12T14:54:15;10.95;;;3.50;;
23121;SDS011;11730;51.248;22.534;2023-03-12T14:56:43;7.80;;;3.42;;
23121;SDS011;11730;51.248;22.534;2023-03-12T14:59:21;5.32;;;3.35;;
23121;SDS011;11730;51.248;22.534;2023-03-12T15:01:49;8.02;;;3.85;;
23121;SDS011;11730;51.248;22.534;2023-03-12T15:04:18;8.90;;;3.92;;
23121;SDS011;11730;51.248;22.534;2023-03-12T15:06:48;6.47;;;3.30;;
23121;SDS011;11730;51.248;22.534;2023-03-12T15:09:17;5.72;;;3.10;;
23121;SDS011;11730;51.248;22.534;2023-03-12T15:11:50;7.70;;;3.72;;
23121;SDS011;11730;51.248;22.534;2023-03-12T15:14:18;7.03;;;3.22;;
23121;SDS011;11730;51.248;22.534;2023-03-12T15:16:47;7.68;;;3.47;;
23121;SDS011;11730;51.248;22.534;2023-03-12T15:19:15;7.45;;;3.58;;
23121;SDS011;11730;51.248;22.534;2023-03-12T15:21:44;9.27;;;3.90;;
23121;SDS011;11730;51.248;22.534;2023-03-12T15:24:12;5.63;;;3.40;;
23121;SDS011;11730;51.248;22.534;2023-03-12T15:26:39;6.15;;;3.78;;
23121;SDS011;11730;51.248;22.534;2023-03-12T15:29:20;7.22;;;3.47;;
23121;SDS011;11730;51.248;22.534;2023-03-12T15:31:54;5.63;;;3.38;;
23121;SDS011;11730;51.248;22.534;2023-03-12T15:37:00;8.15;;;3.78;;
23121;SDS011;11730;51.248;22.534;2023-03-12T15:39:29;8.88;;;3.70;;
23121;SDS011;11730;51.248;22.534;2023-03-12T15:42:01;9.10;;;3.65;;
23121;SDS011;11730;51.248;22.534;2023-03-12T15:47:38;9.85;;;3.95;;
23121;SDS011;11730;51.248;22.534;2023-03-12T15:50:11;7.93;;;3.70;;
23121;SDS011;11730;51.248;22.534;2023-03-12T15:52:39;7.53;;;3.83;;
23121;SDS011;11730;51.248;22.534;2023-03-12T15:57:48;5.22;;;4.05;;
23121;SDS011;11730;51.248;22.534;2023-03-12T16:02:49;6.07;;;3.78;;
23121;SDS011;11730;51.248;22.534;2023-03-12T16:07:50;7.32;;;3.80;;
23121;SDS011;11730;51.248;22.534;2023-03-12T16:10:19;5.80;;;4.13;;
23121;SDS011;11730;51.248;22.534;2023-03-12T16:12:48;10.02;;;5.85;;
23121;SDS011;11730;51.248;22.534;2023-03-12T16:15:20;10.40;;;4.32;;
23121;SDS011;11730;51.248;22.534;2023-03-12T16:17:48;7.72;;;4.60;;
23121;SDS011;11730;51.248;22.534;2023-03-12T16:20:15;8.63;;;5.10;;
23121;SDS011;11730;51.248;22.534;2023-03-12T16:22:42;8.95;;;5.10;;
23121;SDS011;11730;51.248;22.534;2023-03-12T16:25:10;7.07;;;5.07;;
23121;SDS011;11730;51.248;22.534;2023-03-12T16:27:40;12.18;;;5.75;;
23121;SDS011;11730;51.248;22.534;2023-03-12T16:30:13;11.02;;;5.70;;
23121;SDS011;11730;51.248;22.534;2023-03-12T16:32:54;8.68;;;5.13;;
23121;SDS011;11730;51.248;22.534;2023-03-12T16:35:22;16.48;;;6.32;;
23121;SDS011;11730;51.248;22.534;2023-03-12T16:37:49;11.60;;;5.97;;
23121;SDS011;11730;51.248;22.534;2023-03-12T16:40:16;7.22;;;4.95;;
23121;SDS011;11730;51.248;22.534;2023-03-12T16:42:58;10.07;;;5.47;;
23121;SDS011;11730;51.248;22.534;2023-03-12T16:45:30;11.07;;;5.50;;
23121;SDS011;11730;51.248;22.534;2023-03-12T16:48:01;9.27;;;4.80;;
23121;SDS011;11730;51.248;22.534;2023-03-12T16:50:28;7.85;;;4.90;;
23121;SDS011;11730;51.248;22.534;2023-03-12T16:52:56;12.43;;;5.85;;
23121;SDS011;11730;51.248;22.534;2023-03-12T16:55:27;12.38;;;6.22;;
23121;SDS011;11730;51.248;22.534;2023-03-12T16:57:59;15.85;;;6.53;;
23121;SDS011;11730;51.248;22.534;2023-03-12T17:00:28;11.98;;;6.80;;
23121;SDS011;11730;51.248;22.534;2023-03-12T17:02:55;16.58;;;6.97;;
23121;SDS011;11730;51.248;22.534;2023-03-12T17:05:24;13.10;;;7.38;;
23121;SDS011;11730;51.248;22.534;2023-03-12T17:07:51;10.52;;;5.88;;